BYDGOSKI BIEG URODZINOWY

Organizator:
Miasto Bydgoszcz
Data:
2019-04-14
Miejsce:
Bydgoszcz
Dystans:
5 km
Zgłoszonych:
1499
Wystartowało:
1277
Nie ukończyło:
4
Ukończyło:
1273
Na trasie:
4

Klasyfikacja: K-Open

Wyniki nieoficjalne !!!
Wyniki uproszczone: PDF | PDF2 | CSV
Klasyfikacje w punktach pomiarowych: Meta
Klasyfikacje wg kategorii: Wszyscy | K-Open | M-Open | SM Drużyny | SM Kobiety | SM Mężczyźni | K10 | M10 | K18 | M18 | K20 | M20 | K30 | M30 | K40 | M40 | K50 | M50 | K60 | M60

MscZawodnikNumerKlubMiejscowośćKrajKategoriaMkatK/MCzas startuCzas
netto
5km
Czas
brutto
5km
Różn.Tempo
min/km
Tempo
km/h
       
1SZENK Marta 534BYDGOSZCZK301K 100:00:0200:18:57.9500:19:00.70 3:4715.8
2PĘKAŁA Aleksandra 1439RUN PASJABYDGOSZCZK302K 200:00:0300:19:49.0500:19:52.50+00:00:513:5715.1
3CZAJKOWSKA Sylwia 453#ŻÓŁTOKRÓLEWSCYBYDGOSZCZK401K 300:00:0400:21:16.2000:21:20.25+00:02:184:1514.1
4SIKORA Sylwia 5621 BRYGADALOGISTYCZNABYDGOSZCZK402K 400:00:0500:21:33.2500:21:39.05+00:02:354:1813.9
5STAŃCZYK Martyna 200TOMASZÓW MAZOWIECKIK201K 500:00:0900:21:33.5000:21:43.15+00:02:354:1813.9
6PALACZ Wioletta 65BYDGOSZCZK403K 600:00:0400:21:35.0500:21:39.70+00:02:374:1913.9
7MICHALIK Joanna 460ARUNBYDGOSZCZK303K 700:00:0200:21:35.7000:21:38.10+00:02:374:1913.9
8RYCZAK Maja 89681 BLPBYDGOSZCZK202K 800:00:0900:22:08.3500:22:17.35+00:03:104:2513.6
9JAGODZIŃSKA Magdalena 57BYDGOSKIE OKONIEBYDGOSZCZK203K 900:00:0600:22:19.3500:22:25.60+00:03:214:2713.4
10WNĘK Natalia 664SPECIAL SPACEGRÓDEKK204K 1000:00:0300:22:21.8500:22:25.50+00:03:234:2813.4
11STROKOWSKA Paulina 1158BYDGOSZCZK205K 1100:00:1200:22:34.7500:22:47.50+00:03:364:3113.3
12PIOTROWSKA Katarzyna 703BYDGOSZCZK206K 1200:00:0400:22:35.3000:22:40.10+00:03:374:3113.3
13ANDRZEJEWSKA Sylwia 265BYDGOSZCZK304K 1300:00:0400:23:02.5000:23:06.80+00:04:044:3613
14WESOŁOWSKA Magdalena 1322BYDGOSZCZK207K 1400:00:3000:23:11.2500:23:41.80+00:04:134:3812.9
15WOLAN Magdalena 8AMORKIBYDGOSZCZK404K 1500:00:1900:23:25.5500:23:44.65+00:04:274:4112.8
16MROTEK Katarzyna 67ON THE MOVEKRUSZYN KRAJEŃSKIK305K 1600:01:0400:23:30.7500:24:35.70+00:04:324:4212.8
17KUBEŁ Marta 1071BYDGOSZCZK208K 1700:00:0400:23:36.6000:23:40.95+00:04:384:4312.7
18PILAKOWSKA Angelika 644ELTRA W BIEGUŁOCHOWOK306K 1800:00:1100:23:39.2500:23:50.40+00:04:414:4312.7
19PAWLIK Anna 713ZK NR 2 GRUDZIĄDZGRUDZIĄDZK405K 1900:00:1800:23:53.6000:24:11.85+00:04:554:4612.6
20OSTROWSKA Anna 677BĘDZITOWOK101K 2000:00:3800:23:57.4000:24:36.25+00:04:594:4712.5
21DZIKOWSKA Paulina 782GRUDZIĄDZK307K 2100:00:1800:24:00.1000:24:18.45+00:05:024:4812.5
22GONIA Alicja 978BYDGOSZCZK406K 2200:01:0500:24:08.0000:25:13.35+00:05:104:4912.4
23DOBRZYŃSKA Ewa 234BYDGOSZCZK308K 2300:00:3900:24:13.9500:24:53.35+00:05:164:5012.4
24MICHALSKA Daria 403BYDGOSKIE OKONIEBYDGOSZCZK209K 2400:00:1800:24:15.3000:24:33.30+00:05:174:5112.4
25KUBIS Sylwia 1460BYDGOSZCZK407K 2500:00:3200:24:18.1500:24:50.20+00:05:204:5112.3
26DZIEŻA Roma 165RUN BYDGOSZCZBYDGOSZCZK408K 2600:00:2500:24:25.4000:24:50.45+00:05:274:5312.3
27WIŚNIEWSKA-KACZOR Iga 981GRUDZIĄDZK309K 2700:00:0000:24:25.6500:24:25.65+00:05:274:5312.3
28ROGALSKA Justyna 944BYDGOSZCZK3010K 2800:00:1800:24:29.4500:24:47.75+00:05:314:5312.3
29KLAWIKOWSKA Julita 613TKKF KOLEJARZ BYDGOSZCZBYDGOSZCZK3011K 2900:00:3700:24:31.3000:25:08.85+00:05:334:5412.2
30KEPHART Kimberly 812ZIELONKAK3012K 3000:00:2100:24:35.6000:24:57.15+00:05:374:5512.2
31PIĄTEK Justyna 1179GDAŃSKK3013K 3100:00:2200:24:36.1000:24:58.50+00:05:384:5512.2
32WOŹNIAK Anna 898NAKŁO NAD NOTECIĄK409K 3200:00:1600:24:46.0000:25:02.05+00:05:484:5712.1
33WAJER Marita 694REEBOK RUN CREW BYDGOSZCZŚLESINK2010K 3300:00:1100:24:47.7000:24:59.30+00:05:494:5712.1
34MATKOWSKA Monika 1496BYDGOSZCZK3014K 3400:00:4400:24:53.7000:25:38.15+00:05:554:5812
35POZORSKA Joanna 953BIEGAJĄCE ŚLIWICELIŃSKK3015K 3500:00:1000:24:58.0500:25:08.15+00:06:004:5912
36TARCZYŃSKA Marta 314COOKIETEAMRUNNERSBYDGOSZCZK3016K 3600:00:3300:25:08.9500:25:42.00+00:06:115:0111.9
37STEJUK Aleksandra 473AMS RIATHLONBYDGOSZCZK4010K 3700:00:2800:25:20.9500:25:49.55+00:06:235:0411.8
38BŁASZCZYK Agnieszka 1372BYDGOSZCZK3017K 3800:01:0000:25:21.9500:26:22.35+00:06:245:0411.8
39MISUN-NOWAK Katarzyna 1228AMS TRIATHLONBYDGOSZCZK3018K 3900:00:2800:25:22.6500:25:51.30+00:06:245:0411.8
40CHMIELARZ Karina 117CZĘSTOCHOWAK2011K 4000:01:1200:25:23.4000:26:36.15+00:06:255:0411.8
41KAMPER Małgorzata 444BYDGOSZCZK4011K 4100:00:1100:25:26.2500:25:37.50+00:06:285:0511.8
42NAGORZYSKA Sylwia 151BIEGAM WSPIERAM MOTYWUJĘBYDGOSZCZK3019K 4200:00:0900:25:28.2000:25:37.20+00:06:305:0511.8
43WOJDAT Dominika 49ZIELONY PELIKANBYDGOSZCZK2012K 4300:01:1700:25:33.1000:26:50.85+00:06:355:0611.7
44SZCZUKOWSKA Nicol 1301BUKOWIECK102K 4400:00:4500:25:33.5500:26:18.55+00:06:355:0611.7
45MATUSIAK Aneta 1203NKUBBYDGOSZCZK3020K 4500:00:1200:25:35.0500:25:47.55+00:06:375:0711.7
46CICHOŃSKA - BAZAK Marzena 422CZARNE STOPY.SMBYDGOSZCZK4012K 4600:01:0300:25:36.2500:26:40.15+00:06:385:0711.7
47POTRZEBOWSKA Agata 652DEAF I #B3KKOBIETAK3021K 4700:00:3000:25:40.6500:26:11.10+00:06:425:0811.7
48STASZKIEWICZ Lucyna 857STASHKY TEAMBYDGOSZCZK501K 4800:00:2900:25:43.1000:26:12.25+00:06:455:0811.7
49SZYCZEWSKA Ewa 34BYDGOSZCZK4013K 4900:00:3400:25:45.0000:26:19.15+00:06:475:0911.7
50POLACKA Jadwiga 779BIEGAJ Z DĘBAMIOSIELSKOK4014K 5000:00:1300:25:47.7500:26:01.05+00:06:495:0911.6
51KRAS Karolina 1155BYDGOSZCZK2013K 5100:01:0700:25:51.6500:26:58.90+00:06:535:1011.6
52CHMURA Ewa 1291GRUDZIĄDZK3022K 5200:00:1500:25:51.7000:26:07.55+00:06:535:1011.6
53BOROWICZ Anna 832BYDGOSZCZK3023K 5300:00:3800:25:55.9000:26:34.00+00:06:575:1111.6
54JAWORSKA Aleksandra 14796. KILOMETRBYDGOSZCZK2014K 5400:00:2200:25:56.9000:26:19.65+00:06:585:1111.6
55GROBELNA Angelika 75BYDGOSZCZ NA STARTNIEMCZK4015K 5500:00:4200:25:57.0500:26:39.35+00:06:595:1111.6
56MAJEWSKA Ryszarda 1251OSIELSKOK601K 5600:00:3900:26:08.9500:26:48.35+00:07:115:1311.5
57SOBANIA-TRENDEWICZ Paulina 1172BYDGOSZCZK3024K 5700:01:3900:26:11.0500:27:50.90+00:07:135:1411.5
58STĘPIEŃ Monika 109BYDGOSZCZK4016K 5800:00:2000:26:15.9500:26:36.10+00:07:185:1511.4
59SZPYT Ania 635BYDGGOSZCZK3025K 5900:00:2800:26:17.1500:26:45.25+00:07:195:1511.4
60DEKOWSKA Monika 1414WĘTFIEK3026K 6000:00:3200:26:20.4000:26:53.10+00:07:225:1611.4
61BOROWIEC Wioleta 636BBL SZUBINSZUBINK3027K 6100:00:2000:26:21.4000:26:41.45+00:07:235:1611.4
62LACKOWSKA Aleksandra 853WIERZCHUCIN KRÓLEWSKIK2015K 6200:01:1400:26:22.9000:27:37.85+00:07:245:1611.4
63JANOWSKA Renata 724BYDGOSZCZK4017K 6300:00:1700:26:27.3000:26:45.25+00:07:295:1711.3
64PIECZYŃSKA Joanna 767BYDGOSZCZK3028K 6400:01:0000:26:27.3500:27:27.60+00:07:295:1711.3
65WILCZYŃSKA Iga 764BYDGOSZCZK103K 6500:00:3600:26:29.4500:27:05.60+00:07:315:1711.3
66ZECH Izabela 35RUDA TEAM/FOREST GANGBYDGOSZCZK4018K 6600:00:1400:26:30.8500:26:44.95+00:07:325:1811.3
67JANUSZKIEWICZ Judyta 525BIEGAM PO PIWOBYDGOSZCZK3029K 6700:00:1700:26:31.9500:26:49.80+00:07:345:1811.3
68SAPALSKA Michalina 514BIEGAJĄCE ŚLIWICELUBIEWOK2016K 6800:00:0900:26:32.2500:26:41.95+00:07:345:1811.3
69KOLANOWSKA Grażyna 818BYDGOSZCZK502K 6900:00:2800:26:33.1000:27:01.65+00:07:355:1811.3
70WOSZCZYK Agnieszka 1000BYDGOSZCZK2017K 7000:00:1100:26:35.2000:26:47.10+00:07:375:1911.3
71ULATOWSKA Sylwia 957TORUŃK3030K 7100:01:1500:26:37.3500:27:53.20+00:07:395:1911.3
72KUJDA Dorota 116OSIELSKOK3031K 7200:00:3600:26:38.6500:27:15.50+00:07:405:1911.3
73ZALEWSKA Michalina 1256UKS KOPERNIKBYDGOSZCZK104K 7300:00:2500:26:38.8000:27:03.85+00:07:405:1911.3
74PORAZINSKA Viktoria 54BYDGOSZCZK4019K 7400:00:4200:26:42.8500:27:24.90+00:07:445:2011.2
75GACA Annamaria 1330BYDGOSZCZK4020K 7500:02:0400:26:43.0500:28:47.15+00:07:455:2011.2
76TOMCZYK Agata 785BYDGOSZCZK3032K 7600:01:3800:26:44.8000:28:23.40+00:07:465:2111.2
77GONCERZ Katarzyna 299ANANASYCZELADŹK3033K 7700:01:3300:26:52.0000:28:25.85+00:07:545:2211.2
78WIŚNIEWSKA Aleksandra 912MROCZAK181K 7800:01:3500:26:52.9500:28:28.55+00:07:555:2211.2
79STĘŻEWSKA Emilia 1124TURZNO KUJAWSKIEK2018K 7900:00:3800:26:55.1000:27:33.25+00:07:575:2311.1
80GRALAK Martyna 547BYDGOSKI KLUB KYOKUSHIN KARATEBYDGOSZCZK105K 8000:00:1900:26:56.2000:27:15.25+00:07:585:2311.1
81PRZYBYLSKA Grażyna 278BYDGOSZCZ NA START, SL PBBYDGOSZCZK503K 8100:00:3000:26:58.2500:27:28.75+00:08:005:2311.1
82MAJEWSKA Monika 750LUCIMK3034K 8200:01:0500:26:59.4500:28:04.45+00:08:015:2311.1
83TRAWCZYŃSKA Katarzyna 1280BYDGOSZCZK3035K 8300:01:4200:27:00.6000:28:42.65+00:08:025:2411.1
84MAGDZIARZ Katarzyna 1012KANCELARIA HMMBYDGOSZCZK3036K 8400:01:0600:27:02.7500:28:08.85+00:08:045:2411.1
85WASILEWSKA-MICHALAK Agata 684AMSOSÓWIECK3037K 8500:00:3100:27:04.3500:27:36.10+00:08:065:2511.1
86ŚWIETLIK Michalina 449BYDGOSZCZK3038K 8600:01:0900:27:06.9000:28:16.05+00:08:085:2511.1
87SCHREIBER Monika 352BYDGOSZCZK2019K 8700:00:5300:27:07.8000:28:01.15+00:08:095:2511.1
88FELKNER Alicja 774CIELEK106K 8800:00:4600:27:11.1000:27:57.20+00:08:135:2611
89PIETRZYKOWSKA Agnieszka 32BYDGOSZCZK2020K 8900:00:5400:27:13.9000:28:08.80+00:08:155:2611
90GUTKOWSKA Agnieszka 1213BYDGOSZCZK3039K 9000:01:1800:27:14.1000:28:32.55+00:08:165:2611
91MIKLER Aleksandra 1RUNOLA / FOREST GANGBYDGOSZCZK2021K 9100:00:1300:27:14.3000:27:28.15+00:08:165:2711
92BURCZYK Katarzyna 381BYDGOSZCZK4021K 9200:00:4600:27:15.7000:28:02.30+00:08:175:2711
93WITKOWSKA Monika 1428BYDGOSZCZK3040K 9300:01:1800:27:16.0000:28:34.30+00:08:185:2711
94HAUS Katarzyna 638BBL SZUBINSZUBINK4022K 9400:00:2100:27:16.7500:27:38.00+00:08:185:2711
95CZYŻEWSKA Justyna 103BRZOZAK3041K 9500:01:3400:27:18.5500:28:53.10+00:08:205:2711
96PAWLEWSKA Joanna 729SPORTWAYBYDGOSZCZK4023K 9600:00:2500:27:21.6500:27:46.70+00:08:235:2811
97BIEGAŁA Agnieszka 1434RENEGATINOWROCŁAWK3042K 9700:00:3400:27:23.3000:27:57.30+00:08:255:2811
98BĘC Dominika 503CB163MAKSYMILIANOWOK2022K 9800:01:5900:27:26.4500:29:25.50+00:08:285:2910.9
99KRZEMIŃSKA Jolanta 378BYDGOSZCZK3043K 9900:00:2500:27:28.9000:27:54.85+00:08:305:2910.9
100GRUSZCZYŃSKA Monika 1125BYDGOSZCZK2023K 10000:00:1000:27:29.0500:27:39.85+00:08:315:2910.9
101MASŁOWSKA Angelika 915SZUBINK3044K 10100:00:1900:27:30.0000:27:49.65+00:08:325:3010.9
102SZABLIŃSKA Honorata 1041KOŁACZKOWOK3045K 10200:00:1900:27:30.3500:27:49.65+00:08:325:3010.9
103WÓJCIK Marika 654DECATHLON TEAM INOWROCŁAWINOWROCŁAWK2024K 10300:00:2000:27:31.0000:27:51.75+00:08:335:3010.9
104CICHULSKA-QUAAS Izabela 360ZAJABELABYDGOSZCZK4024K 10400:00:2500:27:31.6500:27:56.70+00:08:335:3010.9
105AFELT Luiza 720CROSSFORDONBYDGOSZCZK2025K 10500:00:3300:27:34.5000:28:08.35+00:08:365:3110.9
106PRZYBYŁA Agnieszka 1452BYDGOSZCZK3046K 10600:01:4400:27:36.9000:29:21.75+00:08:385:3110.9
107KOLIŃSKA Sylwia 1095GOŁAŃCZK4025K 10700:00:3600:27:37.9000:28:14.65+00:08:395:3110.9
108WOLSKA Aleksandra 70BYDGOSZCZK2026K 10800:01:3100:27:38.0000:29:09.05+00:08:405:3110.9
109MARĆ Klara 841BYDGOSZCZK107K 10900:01:1400:27:39.5500:28:54.05+00:08:415:3210.8
110SENSKA Magdalena 1194BYDGOSZCZK4026K 11000:01:4800:27:46.5000:29:35.15+00:08:485:3310.8
111WIŚNIEWSKA Lucyna 125TRISPACEBYDGOSZCZK504K 11100:01:1500:27:49.5500:29:05.00+00:08:515:3410.8
112GÓRAL Anna 960WIĘCBORKK2027K 11200:01:1600:27:52.0000:29:08.80+00:08:545:3410.8
113BORAKIEWICZ Natalia 1097GOŁAŃCZK2028K 11300:00:3600:27:54.1500:28:30.70+00:08:565:3410.8
114GIŁKA Gosia 396BYDGOSZCZK2029K 11400:01:3200:27:58.4500:29:30.70+00:09:005:3510.7
115SZULC Joanna 96SHIUZ BYDGOSZCZ FLOW RUNNERSBYDGOSZCZK4027K 11500:01:0400:27:58.5000:29:03.45+00:09:005:3510.7
116GRABOWSKA Marlena 1005BYDGOSZCZK3047K 11600:01:1200:27:59.7000:29:12.45+00:09:015:3610.7
117GADOMSKA Maria 17RUN BYDGOSZCZBYDGOSZCZK602K 11700:00:2500:27:59.8000:28:25.75+00:09:015:3610.7
118JANKOWSKA Katarzyna 1473BYDGOSZCZK4028K 11800:01:1300:27:59.8500:29:13.40+00:09:015:3610.7
119LEWANDOWSKA Izabela 1002BYDGOSZCZK3048K 11900:01:1300:28:00.0000:29:13.20+00:09:025:3610.7
120DURAŁEK Annna 439PRUSZCZPRUSZCZK4029K 12000:00:3000:28:00.0500:28:30.10+00:09:025:3610.7
121BACHERA Aleksandra 1436BYDGOSZCZK4030K 12100:00:1600:28:00.3500:28:16.65+00:09:025:3610.7
122WÓJTOWICZ Monika 457BYDGOSZCZK3049K 12200:00:2700:28:00.6500:28:28.60+00:09:025:3610.7
123KALINOWSKA Kamila 315BYDGOSZCZK4031K 12300:01:1400:28:00.7500:29:15.50+00:09:025:3610.7
124TYKWIŃSKA Agnieszka 1127COOKIETEAMRUNNERSBYDGOSZCZK3050K 12400:00:2700:28:01.9000:28:29.45+00:09:035:3610.7
125ŚWIĄTEK Hanna 389BORNE SULINOWOK3051K 12500:00:2400:28:02.7500:28:26.80+00:09:045:3610.7
126WIENEKE Annika 611BYDGOSZCZK3052K 12600:00:1500:28:04.5000:28:19.85+00:09:065:3610.7
127CHYLIŃSKA Monika 1335BYDGOSZCZK3053K 12700:00:2200:28:06.6500:28:28.80+00:09:085:3710.7
128PŁACZKOWSKA Magdalena 239BYDGOSZCZK3054K 12800:00:4000:28:07.2500:28:47.30+00:09:095:3710.7
129FIGLER Iwona 181TRISPACENIEMCZK4032K 12900:01:1600:28:07.8000:29:24.35+00:09:095:3710.7
130BOROWICKA Anna 1464BYDGOSZCZK3055K 13000:00:3300:28:07.9000:28:41.65+00:09:095:3710.7
131WILCZYŃSKA Anita 267BYDGOSZCZK3056K 13100:01:0600:28:11.0500:29:17.45+00:09:135:3810.6
132MENDEL Karolina 485BYDGOSZCZK2030K 13200:00:5400:28:11.8500:29:06.75+00:09:135:3810.6
133JEZIORSKA Monika 507BYDGOSZCZK3057K 13300:01:5200:28:12.7500:30:04.80+00:09:145:3810.6
134GAWROŃSKA Bożena 642BARCINK505K 13400:01:0600:28:13.5000:29:19.60+00:09:155:3810.6
135ORTEGA MORENO Ines 930BYDGOSZCZK2031K 13500:00:1300:28:13.8000:28:27.60+00:09:155:3810.6
136SZYNWELSKA Marlena 668BYDGOSZCZK506K 13600:00:5700:28:13.8500:29:10.85+00:09:155:3810.6
137TUSZYŃSKA Anna 1303BYDGOSZCZK2032K 13700:01:0300:28:14.8500:29:18.45+00:09:165:3910.6
138WAWRZYNIAK Karolina 242BYDGOSZCZK3058K 13800:00:4000:28:16.4000:28:56.45+00:09:185:3910.6
139REREK Agnieszka 868WPLBYDGOSZCZK2033K 13900:01:4400:28:16.4500:30:01.05+00:09:185:3910.6
140OKRĘGLICKA Barbara 1493BYDGOSZCZK603K 14000:00:0900:28:17.4500:28:27.05+00:09:195:3910.6
141ŚWIGOŃ Aneta 810BYDGOSZCZK3059K 14100:00:4300:28:17.4500:29:01.40+00:09:195:3910.6
142GIL-PILARSKA Marta 183ZAWISZA BYDGOSZCZBYDGOSZCZK108K 14200:00:4900:28:18.1000:29:07.25+00:09:205:3910.6
143GAJTKOWSKA Emilia 1304TORUŃK3060K 14300:01:1500:28:19.0000:29:34.30+00:09:215:3910.6
144OŻGA Agnieszka 91BYDGOSZCZK3061K 14400:00:1900:28:19.8500:28:39.75+00:09:215:4010.6
145DROSDOWSKA Klara 1087ŚWIECIEK2034K 14500:00:1200:28:20.0500:28:32.55+00:09:225:4010.6
146MATUSZEWSKA Monika 343BYDGOSZCZK3062K 14600:00:4300:28:20.9000:29:04.35+00:09:225:4010.6
147POBOŻAN Agnieszka 803BIEGAM BO LUBIĘ INOWROCŁAWINOWROCŁAWK2035K 14700:00:0800:28:21.3500:28:29.70+00:09:235:4010.6
148KOMISARCZYK Iwona 693INOWROCŁAW BIEGAINOWROCŁAWK4033K 14800:00:5800:28:22.0500:29:20.15+00:09:245:4010.6
149CHMIELEWSKA Agnieszka 1492LISI OGONK4034K 14900:00:5400:28:22.3500:29:16.35+00:09:245:4010.6
150KŁOS Katarzyna 1491ŁOCHOWOK4035K 15000:00:5300:28:22.7000:29:16.10+00:09:245:4010.6
151CEREZO SÁNCHEZ Alba 929BYDGOSZCZK2036K 15100:00:1300:28:23.6000:28:37.10+00:09:255:4010.6
152LATUSZEK Daria 520DĘBOWA ŁĄKAK2037K 15200:00:5100:28:26.0000:29:17.00+00:09:285:4110.6
153ROGOZIŃSKA Karolina 692BYDGOSZCZK3063K 15300:00:3600:28:27.5500:29:04.50+00:09:295:4110.5
154SCHUMACHER-RATAJ Marta 129BYDGOSZCZK3064K 15400:00:5900:28:28.5500:29:28.50+00:09:305:4110.5
155KRUSIK Aleksandra 272ALBATROSYBYDGOSZCZK2038K 15500:00:0200:28:30.2500:28:32.45+00:09:325:4210.5
156PODEMSKA Patrycja 260FOREST GANGBYDGOSZCZK3065K 15600:00:1300:28:30.8500:28:44.15+00:09:325:4210.5
157BIEŃKOWSKA Anna 1083TOMASZEWOK3066K 15700:00:2300:28:31.3000:28:55.20+00:09:335:4210.5
158GOŁATA Julia 191WILCZA WATAHADĄBROWA CHEŁMIŃSKAK109K 15800:00:3000:28:33.6500:29:03.85+00:09:355:4210.5
159WAWRZYNIAK Paulina 969BYDGOSZCZK2039K 15900:00:4600:28:34.8000:29:21.25+00:09:365:4310.5
160STERING Kamila 1398BYDGOSZCZK2040K 16000:00:4800:28:36.6000:29:25.20+00:09:385:4310.5
161KOCHAŃSKA Wioletta 901PATEREKK4036K 16100:00:5600:28:41.2500:29:37.90+00:09:435:4410.5
162ROSLONSKA Kinga 530BYDGOSZCZK3067K 16200:01:4000:28:41.4000:30:22.05+00:09:435:4410.5
163MARAŚKIEWICZ Agnieszka 275BYDGOSZCZK3068K 16300:01:1700:28:42.3000:29:59.35+00:09:445:4410.5
164GOŁATA Agnieszka 194WILCZA WATAHADĄBROWA CHEŁMIŃSKAK3069K 16400:00:2900:28:44.2000:29:13.95+00:09:465:4410.4
165JANIC Dagmara 628BYDGOSZCZK1010K 16500:00:5300:28:49.4000:29:43.20+00:09:515:4610.4
166AGACIAK Elzbieta 1082RZĘCZKOWOK4037K 16600:00:2400:28:51.4000:29:16.20+00:09:535:4610.4
167SUCHODOLSKA Agnieszka 616ŻOŁĘDOWOK4038K 16700:00:1600:28:53.0500:29:09.95+00:09:555:4610.4
168DOLATA Aneta 1144BYDGOSZCZK3070K 16800:00:2400:28:53.8500:29:17.90+00:09:555:4610.4
169GIPP Małgorzata 1064BYDGOSZCZK3071K 16900:01:5600:28:55.6000:30:51.70+00:09:575:4710.4
170DRZEWIECKA Ada 1486STRZELCE GÓRNEK2041K 17000:00:2300:28:58.7000:29:21.85+00:10:005:4710.4
171WIŚNIEWSKA Julia 1153CEKCYNK2042K 17100:00:3300:28:59.4000:29:32.65+00:10:015:4710.4
172ICIKOWSKA Małgorzata 1052KOWALK2043K 17200:00:5000:28:59.8500:29:50.65+00:10:015:4810.3
173MELWIŃSKA Paulina 63RUN BYDGOSZCZBYDGOSZCZK3072K 17300:01:1300:29:00.3000:30:14.10+00:10:025:4810.3
174JARUSZEWSKA Joanna 602BYDGOSZCZK3073K 17400:01:2300:29:01.6500:30:24.90+00:10:035:4810.3
175SMOLIŃSKA Patrycja 1202BYDGOSZCZK2044K 17500:01:0200:29:01.7000:30:04.00+00:10:035:4810.3
176BUDNY Ewa 1378ULKS BARWICEBYDGOSZCZK1011K 17600:00:5800:29:02.0500:30:00.45+00:10:045:4810.3
177PESZYŃSKA Joanna 1139BYDGOSZCZK4039K 17700:01:0800:29:04.7000:30:13.65+00:10:065:4910.3
178MAŁKOWSKA Ewa 560BYDGOSZCZK2045K 17800:01:2700:29:07.1500:30:34.40+00:10:095:4910.3
179TOMCZYK Agnieszka 255NOWY DWÓRK4040K 17900:01:0500:29:09.7000:30:15.20+00:10:115:5010.3
180NOWICKA Michalina 904BYDGOSZCZK1012K 18000:00:2100:29:11.7000:29:33.25+00:10:135:5010.3
181CHODUR Agnieszka 197BYDGOSZCZ NA STARTBYDGOSZCZK4041K 18100:01:1700:29:13.8000:30:31.60+00:10:155:5010.3
182CHMIELEWSKA Agnieszka 184BYDGOSZCZK3074K 18200:00:4300:29:14.3000:29:57.65+00:10:165:5010.3
183GAJEK Agnieszka 974TASAK TEAMBYDGOSZCZK4042K 18300:01:2500:29:14.4000:30:39.90+00:10:165:5010.3
184DRĄŻYK Justyna 587WAŁDOWO KRÓLEWSKIEK3075K 18400:00:3100:29:14.8500:29:46.50+00:10:165:5110.3
185WAWRZONKOSKA Wiktoria 1058WŁOCŁAWEKK2046K 18500:00:4800:29:17.6000:30:06.15+00:10:195:5110.2
186JANIC Joanna 626BYDGOSZCZK4043K 18600:00:5600:29:18.2500:30:14.65+00:10:205:5110.2
187SIUDZIŃSKA Anna 418BYDGOSZCZK2047K 18700:01:3800:29:18.5500:30:57.15+00:10:205:5110.2
188BŁAŻEK Kasia 1196BIAŁE BŁOTAK3076K 18800:01:0500:29:21.4500:30:27.25+00:10:235:5210.2
189DURAŁEK Laura 440PRUSZCZK1013K 18900:00:2600:29:21.5000:29:47.75+00:10:235:5210.2
190ZUŻYDŁO Zuzanna 797BYDGOSZCZK3077K 19000:00:5500:29:21.9500:30:17.50+00:10:245:5210.2
191ZAJĄC Barbara 1302BYDGOSZCZK2048K 19100:01:3400:29:24.1500:30:58.95+00:10:265:5210.2
192SZCZEPAŃSKA-DOLNA Edyta 1028FOREST GANGBYDGOSZCZK507K 19200:00:1400:29:24.2000:29:39.15+00:10:265:5310.2
193JARZEMSKA Alicja 1367BYDGOSZCZ TRIATHLON TEAMBYDGOSZCZK3078K 19300:01:3000:29:26.8000:30:57.55+00:10:285:5310.2
194ADAMCZYK Agnieszka 737NAKŁO NAD NOTECIĄK3079K 19400:02:0300:29:28.8500:31:31.85+00:10:305:5310.2
195LASKOWSKA Aleksandra 1446PRZYŁĘKIK3080K 19500:01:1600:29:29.0000:30:45.70+00:10:315:5310.2
196CEMKE Magdalena 442BYDGOSZCZK2049K 19600:01:0600:29:30.0500:30:36.95+00:10:325:5410.2
197KLIMAS Natalia 826TEAM MICKIEWICZPAPROTNIAK2050K 19700:01:4400:29:30.4500:31:15.15+00:10:325:5410.2
198ABRAMCZYK Agata 854WIERZCHUCIN KRÓLEWSKIK2051K 19800:01:3000:29:31.2500:31:01.50+00:10:335:5410.2
199WORONIECKA Anna 328BYDGOSZCZK4044K 19900:01:1700:29:35.6500:30:53.20+00:10:375:5510.1
200KUBOWICZ-KAMIŃSKA Hania 212WATAHA BYDGOSZCZNIEMCZK3081K 20000:01:0000:29:35.7000:30:36.65+00:10:375:5510.1
201LEWANDOWSKA Malwina 1215BYDGOSZCZK3082K 20100:01:0000:29:36.2000:30:36.25+00:10:385:5510.1
202ŁUKASZEWSKA Ewelina 1148BYDGOSZCZK2052K 20200:00:5900:29:36.3500:30:36.10+00:10:385:5510.1
203PIECHOCIŃSKA Dorota 1279RINORYNARZEWOK3083K 20300:00:4900:29:36.9500:30:26.60+00:10:395:5510.1
204BESS Anna 421BYDGOSZCZK3084K 20400:01:3800:29:37.7000:31:16.40+00:10:395:5510.1
205GRZELA Klaudia 798BYDGOSZCZK2053K 20500:01:0200:29:38.2500:30:40.95+00:10:405:5510.1
206ZNANIECKA Karolina 29INOWROCŁAWK2054K 20600:00:4000:29:40.0000:30:20.75+00:10:425:5610.1
207WIELUŃSKA Dorota 408BYDGOSZCZK3085K 20700:01:1000:29:41.1500:30:51.50+00:10:435:5610.1
208AUGUSTYNOWICZ Aurelia 791RCI BYDGOSZCZBYDGOSZCZK4045K 20800:00:1500:29:42.1000:29:57.50+00:10:445:5610.1
209LASOTA Dominika 688OSIELSKOK182K 20900:01:4200:29:43.8000:31:25.85+00:10:455:5610.1
210SIUDOWSKA Marta 799BYDGOSZCZK3086K 21000:01:0400:29:44.3000:30:48.50+00:10:465:5610.1
211FIEREK Bernadeta 1427BIEGAM Z MARYSIĄTUCHOLAK508K 21100:00:1800:29:44.9500:30:02.95+00:10:475:5610.1
212WOSICKA Wanda 995BYDGOSZCZK4046K 21200:01:0000:29:45.6000:30:46.25+00:10:475:5710.1
213OSTROWSKA Justyna 300GULCZEWOK3087K 21300:02:0000:29:45.9000:31:46.70+00:10:475:5710.1
214MALICKA Beata 406BYDGOSZCZK509K 21400:00:3600:29:46.2500:30:23.10+00:10:485:5710.1
215KĘDZIERSKA Marzena 1019BYDGOSZCZK4047K 21500:00:2600:29:46.8000:30:13.35+00:10:485:5710.1
216FLOREK Milena 142RUNADDICTSBYDGOSZCZK3088K 21600:01:1000:29:47.9500:30:58.65+00:10:505:5710.1
217JASIŃSKA Monika 1358BYDGOSZCZK2055K 21700:01:3200:29:49.0500:31:21.35+00:10:515:5710.1
218FOJUTOWSKA Hanna 385BYDGOSZCZK4048K 21800:00:4500:29:49.7000:30:35.00+00:10:515:5810.1
219GRYSZÓWKA Angelika 1441BYDGOSZCZK2056K 21900:01:1500:29:49.8500:31:05.70+00:10:515:5810.1
220MŁYNAREK-STASIAK Dorota 1387BYDGOSZCZK4049K 22000:00:4400:29:52.8000:30:37.05+00:10:545:5810
221NOWAK Julia 1117BARCINK1014K 22100:00:4800:29:56.7000:30:44.70+00:10:585:5910
222PESTKA Hanna 985LIPNIKIK5010K 22200:00:5900:29:56.7500:30:55.80+00:10:585:5910
223IDCZAK-BOREK Hanna 223BYDGOSZCZK4050K 22300:00:3500:29:56.9000:30:32.15+00:10:585:5910
224STEGNERSKA Agnieszka 718#BIEGACZEBYDGOSZCZK4051K 22400:01:3700:29:57.3500:31:34.65+00:10:595:5910
225ZUZA-WITKOWSKA Anna 111KTR MASA TURYSTYCZNABYDGOSZCZK4052K 22500:00:3400:29:58.3500:30:32.50+00:11:005:5910
226WRÓBLEWSKA Oliwia 695BARCINK1015K 22600:00:4700:30:00.0500:30:47.70+00:11:026:0010
227MELLEM Anna 529BYDGOSZCZK2057K 22700:01:0000:30:00.3000:31:00.95+00:11:026:0010
228WOJCIECHOWSKA Maja 696BARCINK1016K 22800:00:4700:30:00.4500:30:48.10+00:11:026:0010
229STROZYNSKA Sandra 1316BYDGOSZCZK3089K 22900:01:4400:30:01.1500:31:45.55+00:11:036:0010
230DANIELEK Ewa 55WARSZAWAK3090K 23000:00:3700:30:01.4000:30:39.05+00:11:036:0010
231DOBRZAŃSKA Anna 1170BYDGOSZCZK2058K 23100:01:0200:30:02.2500:31:05.05+00:11:046:0010
232BIERNACKA Anka 946BYDGOSZCZK4053K 23200:01:3200:30:03.0000:31:35.15+00:11:056:0010
233PODOSEK Magdalena 1332BYDGOSZCZBYDGOSZCZK3091K 23300:01:4300:30:04.6000:31:47.95+00:11:066:0010
234KRASIŃSKA Katarzyna 95BYDGOSZCZK3092K 23400:01:0200:30:04.9000:31:07.10+00:11:066:0110
235WIATROWSKA Katarzyna 554BYDGOSZCZK3093K 23500:01:0400:30:05.1000:31:10.05+00:11:076:0110
236BARAŃSKA Sylwia 1112PARKRUN BYDGOSZCZBYDGOSZCZK4054K 23600:01:0100:30:05.2000:31:06.75+00:11:076:0110
237FILIPEK Mirosława 220BYDGOSZCZK4055K 23700:01:0300:30:05.3500:31:08.75+00:11:076:0110
238RYDELSKA Kinga 195BYDGOSZCZK4056K 23800:00:3900:30:05.6000:30:44.75+00:11:076:0110
239GRYGORCZUK Elżbieta 256TRISPACE BYDGOSZCZBYDGOSZCZK604K 23900:01:1500:30:07.4500:31:22.50+00:11:096:0110
240PRUSIŃSKA Bernadetta 1297BYDGOSZCZK2059K 24000:01:1200:30:07.5000:31:19.80+00:11:096:0110
241CZECZINSKA Pamela 229ŚWIECIEK2060K 24100:01:0800:30:10.3500:31:18.65+00:11:126:029.9
242LEWANDOWSKA Agnieszka 216BYDGOSZCZK3094K 24200:01:2500:30:14.2000:31:40.00+00:11:166:039.9
243ŻURAWSKA Marta 804BYDGOSZCZK3095K 24300:01:0600:30:16.5500:31:23.15+00:11:186:039.9
244KRZYŻANOWSKA Patrycja 415BYDGOSZCZK2061K 24400:00:4800:30:17.8500:31:06.70+00:11:196:039.9
245SZATKOWSKA Beata 244BYDGOSZCZK5011K 24500:01:4900:30:18.2500:32:07.60+00:11:206:039.9
246KOPROWICZ Katarzyna 538SWIECIEK4057K 24600:01:2900:30:20.6000:31:50.15+00:11:226:049.9
247KRAKOWIAK Marta 122PRZYŁĘKIK2062K 24700:01:1600:30:20.8000:31:37.25+00:11:226:049.9
248RYDELSKA Maria 1425BIEGAM Z BENIĄTUCHOLAK3096K 24800:00:1500:30:22.4000:30:37.95+00:11:246:049.9
249GÓRZYŃSKA Monika 1328BYDGOSZCZK4058K 24900:01:4600:30:22.4500:32:08.70+00:11:246:049.9
250CHWIAŁKOWSKA Joanna 69BYDGOSZCZK4059K 25000:00:4000:30:23.1000:31:03.30+00:11:256:049.9
251BEJENKA Kamila 1106BYDGOSZCZK2063K 25100:01:5800:30:24.2500:32:22.55+00:11:266:049.9
252ANDRZEJEWSKA Asia 218DOBROMIERZK4060K 25200:00:1900:30:24.5500:30:44.40+00:11:266:059.9
253ŻAK Marta 972BYDGOSZCZK2064K 25300:00:5900:30:25.3000:31:24.65+00:11:276:059.9
254GRZYWACZ Karolina 175BYDGOSZCZK3097K 25400:00:4800:30:26.6000:31:15.45+00:11:286:059.9
255KOWALIK Ania 1015BYDGOSZCZK2065K 25500:00:1600:30:27.0500:30:43.55+00:11:296:059.9
256GIZIŃSKA Aleksandra 433BYDGOSZCZK2066K 25600:00:5500:30:27.2000:31:22.55+00:11:296:059.9
257SZARGAN Magda 689ZIELONKAK2067K 25700:01:2500:30:27.2500:31:52.75+00:11:296:059.9
258ADAMCZAK Ewa 1351BYDGOSZCZK3098K 25800:00:4100:30:29.6000:31:10.75+00:11:316:059.8
259WYCZLING Agnieszka 1364INNOVAD TEAMBYDGOSZCZK3099K 25900:00:4000:30:30.1500:31:10.50+00:11:326:069.8
260KARWECKA Natalia 633BYDGOSZCZK2068K 26000:01:4500:30:31.3500:32:16.45+00:11:336:069.8
261KNIOŁA Lucyna 1206NAKŁONAD NOTECIĄK5012K 26100:00:2800:30:32.2000:31:01.05+00:11:346:069.8
262BINKOWSKA Ewelina 933SĘPÓLNO KRAJEŃSKIEK4061K 26200:01:5500:30:33.3000:32:28.45+00:11:356:069.8
263PRZEWOŹNIAK Marta 285TRI FAMILYBYDGOSZCZK2069K 26300:00:5000:30:33.9000:31:23.90+00:11:356:069.8
264DOBOSIEWICZ Anna Maria 88POLONIA BYDGOSZCZ SEKCJA LEKKOATLETYCZNA IM.KLEMENSA BINIAKOWSKIEGOBYDGOSZCZK2070K 26400:01:4500:30:34.9000:32:20.65+00:11:366:079.8
265GONCERZEWICZ Katarzyna 388BYDGOSZCZK30100K 26500:01:5300:30:37.8500:32:30.90+00:11:396:079.8
266ŻUCHELKOWSKA Agata 178BYDGOSZCZK30101K 26600:01:3300:30:37.9000:32:11.05+00:11:396:079.8
267PESTKA Anna 304BYDGOSZCZK30102K 26700:01:4300:30:38.2000:32:21.75+00:11:406:079.8
268KAŹMIERCZAK Aleksandra 379BYDGOSZCZK4062K 26800:01:1000:30:39.9000:31:50.30+00:11:416:089.8
269SOBOTA Beata 40BIAŁE BŁOTAK4063K 26900:01:0800:30:40.9000:31:49.10+00:11:426:089.8
270KONIECZNA Alicja 1266BYDGOSZCZK2071K 27000:01:3700:30:41.5000:32:19.45+00:11:436:089.8
271SZOŁDRA Marta 867WPLBYDGOSZCZK2072K 27100:01:4500:30:42.1000:32:27.25+00:11:446:089.8
272PIECYK-CZAJA Sonia 99BYDGOSZCZK4064K 27200:02:0700:30:42.9500:32:49.95+00:11:456:089.8
273BARCIKOWSKA Weronika 1294KORONOWOK2073K 27300:01:2000:30:43.9500:32:03.95+00:11:466:089.8
274BALCERZAK Dorota 761BBL INOWROCŁAWINOWROCŁAWK5013K 27400:01:0700:30:44.1000:31:51.80+00:11:466:089.8
275WOŹNIACKA Beata 550FUNDACJA JEKO / AZYL DLA JEŻYSOLEC KUJAWSKIK5014K 27500:00:3000:30:44.5000:31:15.45+00:11:466:099.8
276CHŁYSTEK Joanna 571BYDGOSZCZK2074K 27600:01:2800:30:45.8000:32:13.95+00:11:476:099.8
277OWCZARSKA Bożena 647PAWŁÓWEKK5015K 27700:01:3800:30:47.8500:32:25.85+00:11:496:099.7
278RUTKOWSKA Weronika 601BYDGOSZCZK2075K 27800:01:2900:30:49.0000:32:18.00+00:11:516:099.7
279KIRCHHOFF Klaudia 551SĘPÓLNO KRAJEŃSKIEK2076K 27900:01:4200:30:49.3000:32:31.75+00:11:516:099.7
280JOPPEK Jolanta 1239BYDGOSZCZK30103K 28000:02:0400:30:49.9500:32:54.90+00:11:526:109.7
281RUTKOWSKA Natalia 958OLSZTYNK2077K 28100:01:2800:30:50.4500:32:19.10+00:11:526:109.7
282GABEŃSKA Daria 1237J&D&JBYDGOSZCZK30104K 28200:02:0400:30:50.5000:32:55.05+00:11:526:109.7
283MALUDZIŃSKA Aleksandra 916SZUBINK30105K 28300:01:1100:30:50.6500:32:02.40+00:11:526:109.7
284TOKARSKA Alicja 146VEGE RUNNERSBYDGOSZCZK30106K 28400:01:2200:30:51.4500:32:13.95+00:11:536:109.7
285WESOŁOWSKA Klaudia 114BYDGOSZCZK2078K 28500:01:3400:30:52.7000:32:27.45+00:11:546:109.7
286GROBELNA Ida 59BYDGOSZCZK2079K 28600:01:0600:30:54.8000:32:01.55+00:11:566:119.7
287ASTERIOU Zoi 1242BYDGOSZCZK183K 28700:01:1900:30:57.1000:32:16.85+00:11:596:119.7
288MAĆKOWSKA Agnieszka 794BYDGOSZCZK30107K 28800:00:5600:30:57.1000:31:53.50+00:11:596:119.7
289CHLEBKOVÁ Judita 567MARTINK30108K 28900:01:4000:30:59.3500:32:39.35+00:12:016:119.7
290KROLL Agnieszka 624RUN BYDGOSZCZBYDGOSZCZK2080K 29000:00:3600:31:00.0000:31:36.30+00:12:026:129.7
291ERDMANN Agnieszka 478REDAK4065K 29100:00:5900:31:00.5500:31:59.60+00:12:026:129.7
292JANUSZKIEWICZ Kornelia 295WATAHA BYDGOSZCZBYDGOSZCZK30109K 29200:02:0800:31:02.5000:33:10.85+00:12:046:129.7
293KRYSIAK Aleksandra 336WATAHA BYDGOSZCZNAKŁOK5016K 29300:02:0800:31:02.6000:33:11.15+00:12:046:129.7
294KOWALSKA Agata 517RYNARZEWOK2081K 29400:01:0300:31:05.7500:32:08.85+00:12:076:139.7
295PAWLAK Magdalena 1241GRUDZIĄDZK30110K 29500:00:3800:31:08.7000:31:47.05+00:12:106:139.6
296PECHE Aleksandra 964KLUBZDROWIA 24HBYDGOSZCZK30111K 29600:01:1400:31:08.7500:32:23.50+00:12:106:139.6
297JAŻDŻEWSKA Nadia 895BYDGOSZCZK1017K 29700:01:1300:31:08.9500:32:22.75+00:12:116:139.6
298KRYCH Alicja 1361SOPOTK30112K 29800:00:3900:31:10.6500:31:50.25+00:12:126:149.6
299MICKIEWICZ Barbara 402BYDGOSZCZK4066K 29900:00:5000:31:10.7000:32:00.75+00:12:126:149.6
300PIK Aleksandra 1181BIAŁE BŁOTAK184K 30000:01:4100:31:11.7500:32:52.75+00:12:136:149.6
301WÓJCIK Anna 37BYDGOSZCZK30113K 30100:00:3200:31:11.8000:31:44.25+00:12:136:149.6
302CZARNECKA Natalia 1164CHEŁMNOK2082K 30200:00:3400:31:14.4500:31:48.50+00:12:166:149.6
303KUŹBA Karolina 875LEPSZEK2083K 30300:01:3000:31:17.9500:32:48.40+00:12:206:159.6
304CIESIELSKA Agnieszka 1131NAKŁOK30114K 30400:01:5000:31:18.4000:33:08.55+00:12:206:159.6
305NOWICKA Marta 1277NIGHT RUNNERSTURK30115K 30500:01:2000:31:21.8000:32:42.35+00:12:236:169.6
306NIEMCZEWSKA Zofia 1094ŁABISZYN RUNNERSŁABISZYNK30116K 30600:01:1000:31:22.1000:32:32.65+00:12:246:169.6
307DRESLERSKA Agnieszka 273BIAŁE BŁOTAK30117K 30700:00:4900:31:24.0000:32:13.15+00:12:266:169.6
308GRUŻEWSKA Justyna 815BYDGOSZCZK30118K 30800:01:3100:31:24.8000:32:56.15+00:12:266:179.5
309SARNECKA Małgorzata 1210BYDGOSZCZK4067K 30900:01:1900:31:27.6000:32:47.55+00:12:296:179.5
310LEWANDOWSKA Magdalena 1211BYDGOSZCZK30119K 31000:01:1900:31:27.6000:32:47.50+00:12:296:179.5
311CHUDECKA Beata 608GRÓDEKK4068K 31100:01:2600:31:31.8500:32:58.25+00:12:336:189.5
312SAMUL Ewa 506BYDGOSZCZK30120K 31200:01:5700:31:32.4500:33:30.05+00:12:346:189.5
313KULEWICZ Natalia 1341WROCŁAWK2084K 31300:01:3500:31:33.7500:33:09.35+00:12:356:189.5
314ARENDT Marlena 71BYDGOSZCZK4069K 31400:00:4100:31:33.8500:32:15.55+00:12:356:189.5
315MIKOŁAJCZAK Magdalena 699BYDGOSZCZK4070K 31500:00:0600:31:34.1000:31:40.55+00:12:366:189.5
316CHMARA Marzenna 1457ŚWIECIEK5017K 31600:01:3200:31:37.1500:33:09.85+00:12:396:199.5
317ŚMIELIŃSKA Nina 1311WIĘCBORKK2085K 31700:00:3200:31:37.4000:32:10.35+00:12:396:199.5
318KALISZEWSKA Agnieszka 578BYDGOSZCZK30121K 31800:00:4700:31:40.3000:32:27.80+00:12:426:209.5
319ZIELIŃSKA Dorota 160BYDGOSZCZK4071K 31900:00:3700:31:41.2000:32:18.50+00:12:436:209.5
320MEGER Agnieszka 599BYDGOSZCZK4072K 32000:01:1800:31:42.6000:33:01.20+00:12:446:209.5
321ZAMIATOWSKA Kinga 509BELLA LINE BDGBYDGOSZCZK4073K 32100:01:1700:31:44.3000:33:01.40+00:12:466:209.5
322SKRZĄTEK Anna 937PRZYŁĘKIK4074K 32200:01:1600:31:45.0500:33:01.45+00:12:476:219.4
323DĘBCZYŃSKA Agnieszka 407DOBRY KLIMATBYDGOSZCZK4075K 32300:01:5300:31:46.0000:33:39.45+00:12:486:219.4
324BRĄGIEL Anna 1026VEGE RUNNERSBYDGOSZCZK30122K 32400:01:3600:31:46.1000:33:22.35+00:12:486:219.4
325POGORZELSKA Bogusia 1490PEPŁOWOK4076K 32500:00:1900:31:48.8500:32:08.30+00:12:506:219.4
326WRZESIŃSKA Katarzyna 1300BYDGOSZCZK2086K 32600:01:3600:31:50.0500:33:26.20+00:12:526:229.4
327GÓRALEWSKA Dominika 257BYDGOSZCZK2087K 32700:00:3700:31:51.5000:32:28.85+00:12:536:229.4
328JABŁONKA Marta 425BYDGOSZCZK2088K 32800:01:3800:31:52.0500:33:30.90+00:12:546:229.4
329CIŻMOWSKA Anna 246BYDGOSZCZK30123K 32900:00:3500:31:53.6500:32:29.35+00:12:556:229.4
330SŁOWIŃSKA Marta 1359BYDGOSZCZK30124K 33000:01:0500:31:53.7000:32:59.25+00:12:556:229.4
331DEMBEK Magdalena 424BYDGOSZCZK30125K 33100:01:0900:31:55.8000:33:05.40+00:12:576:239.4
332PAPROCKA Małgosia 710BYDGOSZCZK5018K 33200:00:4600:31:56.0000:32:42.00+00:12:586:239.4
333KRUK Anna 377BYDGOSZCZK4077K 33300:01:1200:31:56.7500:33:08.90+00:12:586:239.4
334WŁOSIŃSKA Paulina 591BYDGOSZCZK2089K 33400:01:1200:31:58.6000:33:10.65+00:13:006:239.4
335KAŹMIERCZAK Monika 666BEŁCHATÓWK30126K 33500:01:2600:31:58.8500:33:25.45+00:13:006:239.4
336JASIAK Joanna 923SOLEC KUJAWSKIK30127K 33600:01:3200:32:01.9500:33:34.55+00:13:046:249.4
337MAKOWSKA Justyna 976TASAK TEAMBYDGOSZCZK4078K 33700:01:2400:32:02.4000:33:27.35+00:13:046:249.4
338STEFAŃSKA Wiesława 751BYDGOSZCZK30128K 33800:02:0100:32:02.4000:34:03.50+00:13:046:249.4
339ZDUNKIEWICZ Hanna 659NULLK30129K 33900:02:0200:32:04.2500:34:07.10+00:13:066:259.4
340LEWANDOWSKA Beata 467BYDGOSZCZK4079K 34000:01:4200:32:04.3500:33:46.55+00:13:066:249.4
341RADZIŃSKA Joanna 366EXIMO EXTREME TEAMBYDGOSZCZK30130K 34100:01:3700:32:05.8000:33:43.75+00:13:076:259.3
342RADZIEJEWSKA Grażyna 531BYDGOSZCZK5019K 34200:01:1300:32:06.2500:33:20.10+00:13:086:259.3
343GŁOWACKA Daria 1268BYDGOSZCZK30131K 34300:01:3200:32:06.3500:33:38.35+00:13:086:259.3
344KURKUS Kamila 1401NICWAŁDK2090K 34400:00:5200:32:06.5500:32:59.10+00:13:086:259.3
345KRYSZAK Maria 1068BYDGOSZCZK2091K 34500:00:5100:32:06.9500:32:58.20+00:13:096:259.3
346KOWALSKA Irena 851BYDGOSZCZK605K 34600:00:4800:32:08.0000:32:56.55+00:13:106:259.3
347LUBIENIECKA Aleksandra 986GRUDZIĄDZK2092K 34700:00:5800:32:08.5000:33:07.35+00:13:106:259.3
348KATLEWSKA Marika 700CHEŁMNOK30132K 34800:01:3800:32:08.7000:33:47.30+00:13:106:259.3
349NOSKOWIAK-BAJNO Alicja 185BORÓWNOK4080K 34900:01:4500:32:11.6500:33:57.40+00:13:136:269.3
350BŁASZKIEWICZ Marzena 310CHOŁE KŁÓLIKIBORÓWNOK4081K 35000:01:4600:32:11.8500:33:57.85+00:13:136:269.3
351KILIŃSKA Magdalena 193HELIX POMATIAŻOŁĘDOWOK30133K 35100:00:4000:32:13.2000:32:54.05+00:13:156:269.3
352MARCHLEWSKA Dorota 512BYDGOSZCZK4082K 35200:00:4800:32:13.5000:33:02.40+00:13:156:269.3
353ORŁOWSKA Katarzyna 510BYDGOSZCZK5020K 35300:00:4800:32:14.5000:33:02.75+00:13:166:269.3
354WUDNIAK Agnieszka 417BYDGOSZCZK4083K 35400:00:1700:32:17.7500:32:34.95+00:13:196:279.3
355KOCZOROWSKA Kamila 190BYDGOSZCZK30134K 35500:00:3000:32:18.1000:32:48.95+00:13:206:279.3
356LICA Ewa 1034BYDGOSZCZK4084K 35600:01:0900:32:19.4000:33:29.00+00:13:216:289.3
357TRUŚ Karolina 1362OSIELSKOK30135K 35700:01:3800:32:20.0000:33:58.60+00:13:226:289.3
358BALCERZAK - DANILEWICZ Katarzyna 370WARSZAWAK30136K 35800:01:4600:32:21.0000:34:07.30+00:13:236:289.3
359KUJAWA Magdalena 1366GOŚCIERADZK30137K 35900:01:0900:32:21.5500:33:30.70+00:13:236:289.3
360ZAWORSKA Anna 988BYDGOSZCZK2093K 36000:00:2700:32:25.7000:32:52.75+00:13:276:299.3
361SKIBIŃSKA Paulina 579BYDGOSZCZK30138K 36100:01:1700:32:26.5500:33:44.05+00:13:286:299.2
362KUBICKA Sandra 1283BYDGOSZCZK2094K 36200:01:2400:32:26.6000:33:50.95+00:13:286:299.2
363RATAJCZAK Arleta 303BYDGOSZCZK4085K 36300:01:2900:32:28.3000:33:57.40+00:13:306:299.2
364LELEWSKA Aleksandra 528JANIKOWOK2095K 36400:00:4200:32:28.7000:33:11.20+00:13:306:299.2
365PIONTEK Elżbieta 62BYDGOSZCZK606K 36500:00:4000:32:30.4500:33:10.50+00:13:326:309.2
366KRZYŻAŃSKA Pola 1232BYDGOSZCZ TRIATHLON TEAMBYDGOSZCZK1018K 36600:01:4100:32:34.4000:34:15.80+00:13:366:309.2
367ANDRUSEWICZ Hanna 1348NIWYK4086K 36700:01:4700:32:34.5500:34:21.85+00:13:366:309.2
368MATUSZEWSKA Agnieszka 1046BYDGOSZCZK30139K 36800:01:3100:32:35.4000:34:06.45+00:13:376:319.2
369ANDRZEJCZAK Natalia 822KCYNIAK2096K 36900:00:2500:32:35.9500:33:01.40+00:13:386:319.2
370PIETRZAK Anna 254BYDGOSZCZK2097K 37000:01:1900:32:37.0000:33:56.70+00:13:396:319.2
371SKULSKA Aleksandra 1442BYDGOSZCZK1019K 37100:01:2800:32:38.7500:34:06.80+00:13:406:319.2
372NOWACZEWSKA Paulina 288BYDGOSZCZK30140K 37200:01:3400:32:38.9500:34:12.95+00:13:416:319.2
373PRZYMORSKA-WIERCIOCH Joanna 1116KDK KOŚCIÓŁ DLA KAŻDEGOWĄGROWIECK30141K 37300:00:5300:32:39.6500:33:32.80+00:13:416:319.2
374KUŹNIEWSKA Aleksandra 1168PRĄDKIK30142K 37400:01:0700:32:45.1500:33:52.85+00:13:476:339.2
375BIEŃ-KACAŁA Agnieszka 1152BYDGOSZCZK4087K 37500:01:3900:32:45.6500:34:24.90+00:13:476:339.2
376VAZQUEZ Alicia 897BYDGOSZCZK30143K 37600:01:3900:32:45.7500:34:25.45+00:13:476:339.2
377ŻOŁNIERKIEWICZ Agata 1288BYDGOSZCZK2098K 37700:01:4300:32:45.8000:34:29.40+00:13:476:339.2
378OLEJNICZAK Hanna 1470BYDGOSZCZK30144K 37800:00:2900:32:46.5000:33:16.15+00:13:486:339.2
379BANASZAK Arleta 637BYDGOSZCZK4088K 37900:00:5900:32:49.0000:33:48.05+00:13:516:339.1
380DERDA Hanna 1099BYDGOSZCZK5021K 38000:01:1200:32:52.3500:34:04.95+00:13:546:349.1
381GRABSKA-ZIELIŃSKA Sylwia 11BYDGOSZCZK2099K 38100:00:3500:33:01.0000:33:36.25+00:14:036:369.1
382GROMOWSKA Grażyna 920TKKF KOLEJARZ BYDGOSZCZCEKCYNK5022K 38200:01:1800:33:01.5500:34:20.15+00:14:036:369.1
383ASTUKIEWICZ Julia 1448BYDGOSZCZK20100K 38300:01:5400:33:02.6000:34:56.75+00:14:046:369.1
384RYDZYŃSKA Adrianna 1389BYDGOSZCZK20101K 38400:01:0800:33:02.8500:34:11.50+00:14:046:369.1
385KWIATKOWSKA Joanna 730ŚWIECIEŚWIECIEK30145K 38500:01:0000:33:03.2500:34:03.30+00:14:056:369.1
386SKÓRCZ Małgorzata 333BYDGOSZCZK5023K 38600:01:4100:33:03.4500:34:44.70+00:14:056:369.1
387MARĆ Agnieszka 840BYDGOSZCZK4089K 38700:01:1900:33:04.7500:34:23.75+00:14:066:369.1
388WYSOCKA Kiara 1443BYDGOSZCZK1020K 38800:01:4800:33:05.0000:34:53.80+00:14:076:379.1
389NOWAKOWSKA Marta 796DEAF GARMINBYDGOSZCZK30146K 38900:00:2900:33:05.0500:33:34.25+00:14:076:379.1
390SZPERA Joanna 563KRUSZYNK4090K 39000:00:5100:33:08.2000:34:00.05+00:14:106:379
391BIELUSZEWSKA Mirela 771BBKTSBYDGOSZCZK30147K 39100:02:0200:33:09.1000:35:11.50+00:14:116:379
392MICHTA Iwona 728SPÓJNIA BIAŁE BŁOTAMUROWANIECK30148K 39200:02:0200:33:09.7000:35:11.90+00:14:116:379
393FARBOTKO Ania 1038FOREST GANGBYDGOSZCZK4091K 39300:00:2600:33:12.2000:33:38.35+00:14:146:389
394JAKUBOWSKA Beata 1138ELTRA W BIEGUŁOCHOWOK4092K 39400:01:1500:33:12.3000:34:28.20+00:14:146:389
395PANTKOWSKA Karolina 1107BYDGOSZCZK30149K 39500:01:5700:33:12.3500:35:10.25+00:14:146:389
396BUDZIAK Zuzanna 312BYDGOSZCZK1021K 39600:02:0600:33:14.0000:35:20.30+00:14:166:389
397ZŁAKOWSKA Amelia 678WŁOCŁAWEKK1022K 39700:01:3700:33:14.2000:34:51.75+00:14:166:389
398KUBIAK Katarzyna 1380DOBRCZK30150K 39800:00:2200:33:14.3000:33:36.95+00:14:166:389
399BURSKA Malgorzata 1413DOBRCZK30151K 39900:00:2100:33:15.5500:33:36.55+00:14:176:399
400NOWAK Natalia 1027BYDGOSZCZK185K 40000:01:2200:33:16.4500:34:39.40+00:14:186:399
401WIŚNIEWSKA Beata 643BYDGOSZCZK20102K 40100:01:4800:33:17.1500:35:05.95+00:14:196:399
402RUTKOWSKA Kinga 595BYDGOSZCZK20103K 40200:01:2600:33:18.0500:34:44.30+00:14:206:399
403KWASIGROCH Aleksandra 1310NAKŁO NAD NOTECIĄK30152K 40300:01:0700:33:19.1000:34:26.35+00:14:216:399
404SZYMAŃSKA Alicja 1187FUNDACJA WIELKA RODZINABYDGOSZCZK30153K 40400:01:2300:33:19.4000:34:42.65+00:14:216:399
405ZMUDZIŃSKA Anna 940TEAM RUN KCYNIAKCYNIAK4093K 40500:01:4200:33:20.1000:35:03.05+00:14:226:409
406CELUSTA Sylwia 935IMMORTALBYDGOSZCZK4094K 40600:01:4000:33:22.1500:35:02.20+00:14:246:409
407PIÓRKOWSKA Aga 12BRB BYDGOSZCZBYDGOSZCZK4095K 40700:01:2300:33:26.0500:34:49.40+00:14:286:419
408ARAGONES Amandine 1478BYDGOSZCZK30154K 40800:01:2800:33:29.4000:34:57.60+00:14:316:419
409DEFEMME Céline 938BYDGOSZCZK30155K 40900:01:2700:33:30.2000:34:57.40+00:14:326:429
410MUCHA-BOINSKA Anna 1347SOLEC KUJAWSKIK30156K 41000:00:5400:33:31.7500:34:26.05+00:14:336:428.9
411POCZWARDOWSKA Wioletta 1177DOBRCZK4096K 41100:01:2700:33:32.0500:34:59.50+00:14:346:428.9
412PRZYGOCKA Katarzyna 401BYDGOSZCZK30157K 41200:00:5400:33:32.8000:34:27.10+00:14:346:428.9
413GUL Justyna 1339BYDGOSZCZK30158K 41300:00:2500:33:33.5500:33:58.90+00:14:356:428.9
414RYBICKA Anna 765BYDGOSZCZK4097K 41400:00:2500:33:33.8000:33:59.15+00:14:356:428.9
415KLUZA Marta 1162BYDGOSZCZK20104K 41500:01:2100:33:35.0000:34:56.25+00:14:376:438.9
416KAMINSKA Julia 1357OSÓWIECK1023K 41600:01:2400:33:37.3000:35:02.00+00:14:396:438.9
417JADCZAK Katarzyna 650BYDGOSZCZK4098K 41700:00:4600:33:38.7000:34:25.30+00:14:406:438.9
418WINIARZ Karolina 1183BYDGOSZCZK30159K 41800:00:5200:33:39.2500:34:31.35+00:14:416:438.9
419URBAŃSKA Agnieszka 209BYDGOSZCZK4099K 41900:00:2200:33:39.4000:34:01.50+00:14:416:438.9
420PIÓRKOWSKA Anna 13BIAŁE BŁOTAK40100K 42000:01:0100:33:39.6000:34:40.75+00:14:416:438.9
421TARNOWSKA Anna 1500BYDGOSZCZK40101K 42100:01:0900:33:44.3000:34:53.95+00:14:466:448.9
422MALCZEWSKA Mirka 189BYDGOSZCZK607K 42200:02:0100:33:44.3000:35:46.15+00:14:466:458.9
423BIERYT Magdalena 1105POLIFAX POLIGRAFIA I REKLAMABYDGOSZCZK20105K 42300:01:5800:33:44.8000:35:43.60+00:14:466:458.9
424DZIEWIECZYŃSKA Zuzanna 926KCYNIAK1024K 42400:01:1300:33:46.1000:34:59.95+00:14:486:458.9
425GRABSKA Patrycja 25INOWROCŁAWK20106K 42500:00:3700:33:46.8500:34:24.15+00:14:486:458.9
426SOKÓŁ Justyna 1209BYDGOSZCZK20107K 42600:00:5700:33:48.9000:34:46.15+00:14:506:458.9
427ADASZAK Katarzyna 1263RUN PASJABYDGOSZCZK30160K 42700:01:1700:33:56.7500:35:14.10+00:14:586:478.8
428GSTALTER Stephanie 1293KRUCZYN KRAJENSKIK30161K 42800:01:2700:33:57.8000:35:25.55+00:14:596:478.8
429SACKREUTER Martina 881BYDGOSZCZK30162K 42900:01:4900:33:58.1500:35:47.20+00:15:006:478.8
430OSTROWSKA Renata 676BĘDZITOWOK40102K 43000:00:3900:34:00.0500:34:39.30+00:15:026:488.8
431MIŁKOWSKA Monika 166RUN BYDGOSZCZBYDGOSZCZK40103K 43100:01:1400:34:00.6500:35:14.85+00:15:026:488.8
432ORLOWSKA Agnieszka 950CS GROUP RUNNERS TEAMBYDGOSZCZK40104K 43200:01:4800:34:02.1000:35:50.45+00:15:046:488.8
433SZCZUPAKOWSKA Lucyna 1289BYDGOSZCZK20108K 43300:01:4200:34:02.3500:35:45.20+00:15:046:488.8
434JANKOWSKA Agnieszka 948CS GROUP RUNNERS TEAMBYDGOSZCZK30163K 43400:01:4700:34:02.6000:35:50.25+00:15:046:488.8
435NOWAK Paulina 262BYDGOSZCZK20109K 43500:01:3300:34:03.9000:35:37.65+00:15:056:488.8
436WIŚNIEWSKA Nicole 991BYDGOSZCZK20110K 43600:02:0500:34:10.0000:36:15.65+00:15:126:508.8
437KUCZYŃSKA Agnieszka 1320GIERKOWOK30164K 43700:01:2400:34:10.6000:35:35.15+00:15:126:508.8
438DZBANUSZEK Joanna 294BYDGOSZCZK20111K 43800:01:5300:34:10.8500:36:04.50+00:15:126:508.8
439KALINOWSKA Lidia 1047MAŁE CZYSTEK30165K 43900:01:2500:34:11.6000:35:37.10+00:15:136:508.8
440JAŻDŻEWSKA Aleksandra 872BYDGOSZCZK30166K 44000:01:1400:34:12.3500:35:26.85+00:15:146:508.8
441ŁADNIAK Bernadeta 890CZARNOWOK30167K 44100:01:2400:34:12.4500:35:37.35+00:15:146:508.8
442BOJARSKA Bożena 369BYDGOSZCZK40105K 44200:01:2300:34:13.2000:35:36.85+00:15:156:508.8
443GIETKO-CIEŚLIŃSKA Sylwia 1180KDK KOŚCIÓŁ DLA KAŻDEGOBYDGOSZCZK40106K 44300:00:5200:34:13.2000:35:05.65+00:15:156:508.8
444PIOTROWSKA Klaudia 1085STRZELCE DOLNEK20112K 44400:01:5800:34:13.4500:36:11.85+00:15:156:508.8
445TARASIEWICZ Beata 570BYDGOSZCZK30168K 44500:00:4600:34:13.7500:35:00.10+00:15:156:508.8
446ZALEWSKA Paulina 1259BYDGOSZCZK30169K 44600:00:2500:34:17.3000:34:42.35+00:15:196:518.8
447REINKE Joanna 281BYDGOSZCZK30170K 44700:00:0400:34:17.6500:34:22.10+00:15:196:518.7
448ARENT Marzena 214BYDGOSZCZK5024K 44800:01:2900:34:19.4000:35:48.80+00:15:216:518.7
449NOWAKOWSKA Patrycja 733BYDGOSZCZK20113K 44900:01:1700:34:20.6000:35:37.65+00:15:226:528.7
450KROPIŃSKA Monika 84ZAMOŚĆK30171K 45000:01:4300:34:20.7000:36:04.15+00:15:226:528.7
451NOWOPOLSKA Klaudia 834MOGILNOK186K 45100:01:2200:34:22.1000:35:44.40+00:15:246:528.7
452PIETRZAK Marta 235BBL INOWROCŁAWINOWROCŁAWK5025K 45200:02:0000:34:23.4000:36:23.85+00:15:256:528.7
453ORZECHOWSKA Agnieszka 359BYDGOSZCZK30172K 45300:01:1000:34:28.8500:35:39.65+00:15:306:538.7
454MARKOWSKA Maja 1337BYDGOSZCZK20114K 45400:00:2600:34:30.9500:34:57.90+00:15:336:548.7
455KONIECZNA Weronika 1265BYDGOSZCZK187K 45500:01:3700:34:33.0500:36:10.85+00:15:356:548.7
456GOSZCZAK Magdalena 706WTELNOK30173K 45600:01:0200:34:40.2500:35:42.30+00:15:426:568.7
457MICHALSKA Aleksandra 476OLIMPINK40107K 45700:00:5500:34:40.8500:35:36.75+00:15:426:568.6
458KOCHAŃSKA Magdalena 342NEKLAK40108K 45800:02:0000:34:41.3000:36:41.85+00:15:436:568.6
459NOWAK Anna 143BYDGOSZCZK20115K 45900:00:3200:34:42.3000:35:14.75+00:15:446:568.6
460NOWAK Mariola 144BYDGOSZCZK40109K 46000:00:2900:34:44.9500:35:14.40+00:15:476:578.6
461SZULC Daria 864BUDGOSZCZK30174K 46100:01:3700:34:45.6500:36:22.90+00:15:476:578.6
462HORYD Justyna 139BYDGOSZCZK40110K 46200:01:4900:34:47.8000:36:36.85+00:15:496:578.6
463BRZOZOWSKA Henryka 237INOWROCŁAWK40111K 46300:02:0100:34:47.8500:36:49.20+00:15:496:578.6
464RASSALSKA Roma 147BYDGOSZCZK40112K 46400:01:4900:34:47.9000:36:37.15+00:15:496:578.6
465RASSALSKA-KAUSA Jola 60BYDGOSZCZK40113K 46500:01:4800:34:47.9500:36:36.80+00:15:506:578.6
466BIAŁEK Anna 1261BIEGAJ Z DĘBAMIOSIELSKOK30175K 46600:00:3900:34:53.3500:35:33.30+00:15:556:588.6
467TEWS Marzena 1247BYDGOSZCZK40114K 46700:00:3900:34:53.8500:35:33.05+00:15:556:588.6
468PAWELEC Joanna 671BYDGOSZCZK40115K 46800:00:5700:34:54.2000:35:52.00+00:15:566:598.6
469BASSET Laurence 1292BIALE BLOTAK30176K 46900:01:2900:34:56.0000:36:25.90+00:15:586:598.6
470LAMAZE Julie 1370BYDGODZCZK30177K 47000:01:2900:34:57.0500:36:26.15+00:15:596:598.6
471TOKAREWICZ Joanna 905BYDGOSZCZK40116K 47100:01:2200:34:58.8500:36:20.90+00:16:006:598.6
472CZARNECKA -PIJAROWSKA Dominika 1484BYDGOSZCZK30178K 47200:02:1200:35:02.5500:37:14.75+00:16:047:008.6
473PIJAROWSKA Ilona 1485BYDGOSZCZK1025K 47300:02:1100:35:03.3500:37:15.05+00:16:057:008.6
474ŁOŻYKOWSKA Justyna 1463INOWROCŁAWK30179K 47400:00:3500:35:10.2000:35:45.25+00:16:127:028.5
475PACYNA Ewa 259BYDGOSZCZK20116K 47500:01:1900:35:10.2500:36:30.20+00:16:127:028.5
476BROWNELL Julie 1286NIEMCZK30180K 47600:01:2900:35:10.8500:36:40.75+00:16:127:028.5
477GÓRNIEWICZ Angelika 1466BYDGOSZCZK40117K 47700:00:3400:35:10.9000:35:45.35+00:16:127:028.5
478WIŚNIEWSKA Ewa 848MROCZAK5026K 47800:01:3800:35:21.3500:36:59.70+00:16:237:048.5
479OLSZEWSKA Karolina 619BIAŁE BŁOTAK30181K 47900:00:4900:35:22.3000:36:11.75+00:16:247:048.5
480SŁOMSKA Monika 543BRAKŚWIECIEK30182K 48000:01:3200:35:24.3000:36:56.30+00:16:267:048.5
481NOWICKA Tatiana 511ŚWIECIEK40118K 48100:01:3200:35:24.3000:36:56.35+00:16:267:048.5
482KOWALSKA Zuzanna 891BYDGOSZCZK1026K 48200:01:1300:35:26.2000:36:40.05+00:16:287:058.5
483WIĘCKOWSKA Karolina 1418BYDGOSZCZK30183K 48300:00:5000:35:26.8500:36:17.70+00:16:287:058.5
484DZIEWIECZYŃSKA Arleta 428KCYNIAK30184K 48400:01:1300:35:29.2000:36:43.00+00:16:317:068.5
485TWARDOWSKA Sylwia 252BYDGOSZCZK30185K 48500:01:5900:35:31.9500:37:31.40+00:16:347:068.4
486CYCHOWSKA Anna 515BYDGOSZCZK30186K 48600:01:4600:35:38.9000:37:25.65+00:16:407:078.4
487RÓŻAŃSKA Katarzyna 21BYDGOSZCZK30187K 48700:01:4000:35:41.7000:37:21.95+00:16:437:088.4
488GIPP Karolina 1063BYDGOSZCZK30188K 48800:01:5500:35:42.8500:37:38.45+00:16:447:088.4
489BOROWIAK Agnieszka 942TEAM RUN KCYNIAKCYNIAK30189K 48900:01:4200:35:43.3500:37:25.50+00:16:457:088.4
490KONARZEWSKA Jolanta 558BYDGOSZCZK40119K 49000:01:2300:35:45.3500:37:08.55+00:16:477:098.4
491PROKOPOWICZ Agnieszka 535BYDGOSZCZK40120K 49100:01:2200:35:45.7500:37:08.55+00:16:477:098.4
492JAROCH Magdalena 225ZS 19BYDGOSZCZK30190K 49200:00:5700:35:47.9000:36:45.75+00:16:497:098.4
493ZELEK Aleksandra 83BYDGOSZCZK40121K 49300:01:5700:35:55.9500:37:53.25+00:16:587:118.3
494WRÓBEL Marta 1195BYLE DO METYBYDGOSZCZK20117K 49400:02:0500:35:56.6000:38:02.05+00:16:587:118.3
495KIELISZAK Kinga 1198DZIKIE KUNYINOWROCŁAWK20118K 49500:01:0300:35:56.8000:37:00.70+00:16:587:118.3
496NADRAJKOWSKA Joanna 28DZIKIE KUNYINOWROCŁAWK30191K 49600:01:0400:35:56.9500:37:01.35+00:16:597:118.3
497MACIEJEWSKA Joanna 632BYDGOSZCZK20119K 49700:01:4600:35:57.9000:37:44.45+00:16:597:118.3
498LASOTA Anna 687OSIELSKOK40122K 49800:01:4100:36:05.2500:37:47.10+00:17:077:138.3
499PIEKUŚ Aleksandra 413PĘDZĄCE KUNYBYDGOSZCZK30192K 49900:01:2600:36:08.4500:37:34.95+00:17:107:138.3
500DROZDOWSKA Ola 1252SICIENKOK20120K 50000:01:0300:36:09.2500:37:12.25+00:17:117:138.3
501MARKOWSKA-BAUMGART Aneta 770BIEGAJ Z DĘBAMIOSIELSKOK5027K 50100:01:5500:36:11.8500:38:07.15+00:17:137:148.3
502MAJKOWSKA-LUBIŃSKA Judyta 372CS GROUP RUNNERS TEAMBYDGOSZCZK30193K 50200:01:2300:36:12.2500:37:35.80+00:17:147:148.3
503ZŁAKOWSKA Sandra 680WŁOCŁAWEKK20121K 50300:01:3600:36:17.6000:37:54.30+00:17:197:158.3
504LEPPERT Monika 470WIESZKIK20122K 50400:00:4200:36:18.5000:37:00.70+00:17:207:158.3
505NOWAKOWSKA Anna 42BYDGOSZCZK30194K 50500:00:5100:36:22.3500:37:13.45+00:17:247:168.2
506MŁYNARCZYK Monika 614BYDGOSZCZK20123K 50600:01:5100:36:24.9000:38:16.45+00:17:267:178.2
507HOMZA Agnieszka 1350KOŚCIERZYNAK20124K 50700:01:2800:36:39.0000:38:07.35+00:17:417:198.2
508KOWALSKA Anna 886BYDGOSZCZK40123K 50800:01:1500:36:43.1500:37:58.30+00:17:457:208.2
509WALKOWIAK Greta 432BYDGOSZCZK5028K 50900:00:5200:36:44.0500:37:36.50+00:17:467:208.2
510IWANIEC Ewelina 390BYDGOSZCZK40124K 51000:00:5200:36:52.9000:37:45.80+00:17:547:228.1
511RESMER Anna 429BYDGOSZCZK40125K 51100:00:5200:36:54.6500:37:47.10+00:17:567:238.1
512SZRAMSKA Violetta 416BYDGOSZCZK40126K 51200:00:5200:36:54.8500:37:46.95+00:17:567:228.1
513ŁAKOMSKA Anna 391BYDGOSZCZK40127K 51300:00:5100:36:56.1500:37:47.40+00:17:587:238.1
514KAMIŃSKA Monika 469BYDGOSZCZK30195K 51400:01:4800:36:57.8000:38:46.00+00:17:597:238.1
515GRZYBOWSKA Alicja 1193BYLE DO METYBYDGOSZCZK30196K 51500:00:5400:37:07.4000:38:02.20+00:18:097:258.1
516KACZMAREK Agnieszka 1462BYDGOSZCZK40128K 51600:00:2700:37:23.3000:37:51.25+00:18:257:288
517KUBIAK Beata Kubiak 76BYDGOSZCZK1027K 51700:01:4000:37:25.9000:39:06.40+00:18:277:298
518ROGALSKA Marcelina 941BYDGOSZCZK20125K 51800:02:0700:37:38.4000:39:45.60+00:18:407:318
519NOWAKOWSKA Marzena 564BYDGOSZCZK40129K 51900:00:4600:37:48.9500:38:35.85+00:18:517:337.9
520TESKE Karolina 1001BYDGOSZCZK30197K 52000:02:0400:37:55.2500:40:00.10+00:18:577:357.9
521WILCZYŃSKA Karolina 1014BYDGOSZCZK30198K 52100:02:0400:37:56.0000:40:00.80+00:18:587:357.9
522KOZIEŁ Monika 1003BYDGOSZCZK30199K 52200:01:2900:38:04.8500:39:34.40+00:19:067:377.9
523ADAMS Gail 1036NULLK5029K 52300:01:2000:38:07.2000:39:27.20+00:19:097:377.9
524OLECHNOWICZ Aneta 1343BYDGOSZCZK1028K 52400:01:4800:38:07.2000:39:55.85+00:19:097:377.9
525BUDZIŃSKA Anita 966BYDGOSZSCZK40130K 52500:01:0400:38:12.5000:39:17.20+00:19:147:387.8
526KRZEMIŃSKA Katarzyna 850BYDGOSZCZK20126K 52600:01:0100:38:25.8000:39:27.65+00:19:277:417.8
527ARACH Daria 962BYDGOSZCZK30200K 52700:02:0200:38:55.4500:40:58.35+00:19:577:477.7
528OLECHNOWICZ Ana 1344BYDGOSZCZK30201K 52800:01:5000:39:09.0500:40:59.75+00:20:117:497.7
529PINCZEWSKA Dorota 1104STRZELCE DOLNEK30202K 52900:02:0000:39:10.2500:41:10.25+00:20:127:507.7
530KASPRZYK Daria 1188BYDGOSZCZK30203K 53000:02:0300:39:23.2000:41:27.00+00:20:257:527.6
531GROT Monika 1176ŁOCHOWOK30204K 53100:02:0300:39:23.5500:41:26.85+00:20:257:527.6
532LEPPERT Marta 471WIESZKIK608K 53200:00:4100:39:51.5000:40:32.90+00:20:537:587.5
533POLAKOWSKA Angelika 1305CICHORADZK20127K 53300:01:2500:40:51.8500:42:17.55+00:21:538:107.3
534LEMAŃCZYK Justyna 889BYDGOSZCZK5030K 53400:00:38   
Znaleziono 534 wynik(ów)